sensor_id;sensor_type;location;lat;lon;timestamp;P1;durP1;ratioP1;P2;durP2;ratioP2
55134;SDS011;41031;44.750;11.308;2023-02-23T00:01:55;66.97;;;39.87;;
55134;SDS011;41031;44.750;11.308;2023-02-23T00:04:27;68.33;;;37.67;;
55134;SDS011;41031;44.750;11.308;2023-02-23T00:06:55;70.43;;;39.77;;
55134;SDS011;41031;44.750;11.308;2023-02-23T00:09:22;79.40;;;40.60;;
55134;SDS011;41031;44.750;11.308;2023-02-23T00:11:51;72.00;;;40.70;;
55134;SDS011;41031;44.750;11.308;2023-02-23T00:14:26;67.80;;;39.10;;
55134;SDS011;41031;44.750;11.308;2023-02-23T00:16:56;58.73;;;37.00;;
55134;SDS011;41031;44.750;11.308;2023-02-23T00:19:25;63.90;;;38.00;;
55134;SDS011;41031;44.750;11.308;2023-02-23T00:21:54;67.43;;;39.27;;
55134;SDS011;41031;44.750;11.308;2023-02-23T00:24:24;72.23;;;39.37;;
55134;SDS011;41031;44.750;11.308;2023-02-23T00:26:52;62.33;;;37.60;;
55134;SDS011;41031;44.750;11.308;2023-02-23T00:29:20;68.83;;;38.73;;
55134;SDS011;41031;44.750;11.308;2023-02-23T00:31:52;69.70;;;39.90;;
55134;SDS011;41031;44.750;11.308;2023-02-23T00:34:23;62.27;;;36.90;;
55134;SDS011;41031;44.750;11.308;2023-02-23T00:36:50;68.37;;;37.47;;
55134;SDS011;41031;44.750;11.308;2023-02-23T00:39:20;69.23;;;38.87;;
55134;SDS011;41031;44.750;11.308;2023-02-23T00:41:52;73.10;;;41.30;;
55134;SDS011;41031;44.750;11.308;2023-02-23T00:44:21;78.70;;;40.07;;
55134;SDS011;41031;44.750;11.308;2023-02-23T00:46:50;64.13;;;37.47;;
55134;SDS011;41031;44.750;11.308;2023-02-23T00:49:19;68.73;;;41.00;;
55134;SDS011;41031;44.750;11.308;2023-02-23T00:51:47;71.97;;;38.53;;
55134;SDS011;41031;44.750;11.308;2023-02-23T00:54:15;74.83;;;39.60;;
55134;SDS011;41031;44.750;11.308;2023-02-23T00:56:44;71.90;;;42.03;;
55134;SDS011;41031;44.750;11.308;2023-02-23T00:59:12;72.37;;;41.07;;
55134;SDS011;41031;44.750;11.308;2023-02-23T01:01:40;67.90;;;39.97;;
55134;SDS011;41031;44.750;11.308;2023-02-23T01:04:10;68.87;;;39.53;;
55134;SDS011;41031;44.750;11.308;2023-02-23T01:06:38;73.57;;;41.43;;
55134;SDS011;41031;44.750;11.308;2023-02-23T01:09:10;73.70;;;40.67;;
55134;SDS011;41031;44.750;11.308;2023-02-23T01:11:39;62.23;;;38.77;;
55134;SDS011;41031;44.750;11.308;2023-02-23T01:14:08;75.47;;;42.20;;
55134;SDS011;41031;44.750;11.308;2023-02-23T01:16:36;69.43;;;40.63;;
55134;SDS011;41031;44.750;11.308;2023-02-23T01:19:04;74.80;;;40.40;;
55134;SDS011;41031;44.750;11.308;2023-02-23T01:21:33;72.00;;;40.53;;
55134;SDS011;41031;44.750;11.308;2023-02-23T01:24:02;75.87;;;43.17;;
55134;SDS011;41031;44.750;11.308;2023-02-23T01:26:34;72.07;;;41.93;;
55134;SDS011;41031;44.750;11.308;2023-02-23T01:29:07;74.00;;;39.93;;
55134;SDS011;41031;44.750;11.308;2023-02-23T01:31:45;69.07;;;39.50;;
55134;SDS011;41031;44.750;11.308;2023-02-23T01:34:16;70.20;;;38.63;;
55134;SDS011;41031;44.750;11.308;2023-02-23T01:36:44;72.93;;;39.60;;
55134;SDS011;41031;44.750;11.308;2023-02-23T01:39:13;72.20;;;41.83;;
55134;SDS011;41031;44.750;11.308;2023-02-23T01:41:42;72.73;;;39.57;;
55134;SDS011;41031;44.750;11.308;2023-02-23T01:46:40;73.47;;;41.63;;
55134;SDS011;41031;44.750;11.308;2023-02-23T01:49:22;63.97;;;39.30;;
55134;SDS011;41031;44.750;11.308;2023-02-23T01:51:58;62.07;;;37.43;;
55134;SDS011;41031;44.750;11.308;2023-02-23T01:54:27;71.27;;;38.33;;
55134;SDS011;41031;44.750;11.308;2023-02-23T01:56:59;74.40;;;39.27;;
55134;SDS011;41031;44.750;11.308;2023-02-23T01:59:49;71.10;;;40.30;;
55134;SDS011;41031;44.750;11.308;2023-02-23T02:02:21;69.73;;;40.17;;
55134;SDS011;41031;44.750;11.308;2023-02-23T02:04:58;64.93;;;37.33;;
55134;SDS011;41031;44.750;11.308;2023-02-23T02:07:27;71.13;;;41.17;;
55134;SDS011;41031;44.750;11.308;2023-02-23T02:09:57;65.07;;;37.77;;
55134;SDS011;41031;44.750;11.308;2023-02-23T02:12:37;68.37;;;37.60;;
55134;SDS011;41031;44.750;11.308;2023-02-23T02:15:10;73.80;;;41.47;;
55134;SDS011;41031;44.750;11.308;2023-02-23T02:37:32;71.43;;;40.73;;
55134;SDS011;41031;44.750;11.308;2023-02-23T02:40:14;76.07;;;41.97;;
55134;SDS011;41031;44.750;11.308;2023-02-23T02:45:26;79.57;;;41.40;;
55134;SDS011;41031;44.750;11.308;2023-02-23T02:48:14;76.87;;;42.10;;
55134;SDS011;41031;44.750;11.308;2023-02-23T02:50:53;69.60;;;39.20;;
55134;SDS011;41031;44.750;11.308;2023-02-23T02:53:27;75.03;;;39.37;;
55134;SDS011;41031;44.750;11.308;2023-02-23T02:56:00;68.53;;;38.50;;
55134;SDS011;41031;44.750;11.308;2023-02-23T02:58:34;69.97;;;39.80;;
55134;SDS011;41031;44.750;11.308;2023-02-23T03:01:07;75.97;;;41.17;;
55134;SDS011;41031;44.750;11.308;2023-02-23T03:04:00;78.10;;;40.50;;
55134;SDS011;41031;44.750;11.308;2023-02-23T03:06:55;75.70;;;40.83;;
55134;SDS011;41031;44.750;11.308;2023-02-23T03:09:57;68.67;;;38.63;;
55134;SDS011;41031;44.750;11.308;2023-02-23T03:13:03;67.07;;;38.97;;
55134;SDS011;41031;44.750;11.308;2023-02-23T03:17:01;59.47;;;35.83;;
55134;SDS011;41031;44.750;11.308;2023-02-23T03:19:21;62.93;;;35.57;;
55134;SDS011;41031;44.750;11.308;2023-02-23T03:22:52;70.73;;;36.83;;
55134;SDS011;41031;44.750;11.308;2023-02-23T03:25:51;59.00;;;34.73;;
55134;SDS011;41031;44.750;11.308;2023-02-23T03:28:45;63.43;;;34.60;;
55134;SDS011;41031;44.750;11.308;2023-02-23T03:38:03;65.90;;;36.83;;
55134;SDS011;41031;44.750;11.308;2023-02-23T03:41:10;71.60;;;38.10;;
55134;SDS011;41031;44.750;11.308;2023-02-23T03:44:02;68.80;;;39.13;;
55134;SDS011;41031;44.750;11.308;2023-02-23T03:46:54;58.83;;;35.07;;
55134;SDS011;41031;44.750;11.308;2023-02-23T03:49:44;67.53;;;36.77;;
55134;SDS011;41031;44.750;11.308;2023-02-23T03:52:35;65.33;;;37.97;;
55134;SDS011;41031;44.750;11.308;2023-02-23T03:55:31;58.57;;;34.83;;
55134;SDS011;41031;44.750;11.308;2023-02-23T03:58:24;69.57;;;37.77;;
55134;SDS011;41031;44.750;11.308;2023-02-23T04:01:16;66.60;;;37.17;;
55134;SDS011;41031;44.750;11.308;2023-02-23T04:04:05;66.33;;;37.40;;
55134;SDS011;41031;44.750;11.308;2023-02-23T04:06:54;74.00;;;39.30;;
55134;SDS011;41031;44.750;11.308;2023-02-23T04:09:43;72.47;;;42.50;;
55134;SDS011;41031;44.750;11.308;2023-02-23T04:12:36;69.27;;;39.80;;
55134;SDS011;41031;44.750;11.308;2023-02-23T04:15:32;65.50;;;36.87;;
55134;SDS011;41031;44.750;11.308;2023-02-23T04:18:05;66.30;;;38.40;;
55134;SDS011;41031;44.750;11.308;2023-02-23T04:20:40;69.20;;;38.53;;
55134;SDS011;41031;44.750;11.308;2023-02-23T04:23:08;68.37;;;37.80;;
55134;SDS011;41031;44.750;11.308;2023-02-23T04:25:36;71.00;;;39.93;;
55134;SDS011;41031;44.750;11.308;2023-02-23T04:28:03;62.10;;;36.93;;
55134;SDS011;41031;44.750;11.308;2023-02-23T04:30:31;67.37;;;39.43;;
55134;SDS011;41031;44.750;11.308;2023-02-23T04:33:01;70.03;;;38.17;;
55134;SDS011;41031;44.750;11.308;2023-02-23T04:35:28;62.97;;;36.20;;
55134;SDS011;41031;44.750;11.308;2023-02-23T04:37:56;67.63;;;38.80;;
55134;SDS011;41031;44.750;11.308;2023-02-23T04:40:25;74.60;;;40.07;;
55134;SDS011;41031;44.750;11.308;2023-02-23T04:42:55;66.30;;;39.50;;
55134;SDS011;41031;44.750;11.308;2023-02-23T04:45:23;71.20;;;41.00;;
55134;SDS011;41031;44.750;11.308;2023-02-23T04:47:51;69.27;;;39.60;;
55134;SDS011;41031;44.750;11.308;2023-02-23T04:50:18;77.13;;;41.23;;
55134;SDS011;41031;44.750;11.308;2023-02-23T04:52:45;78.43;;;43.37;;
55134;SDS011;41031;44.750;11.308;2023-02-23T04:55:17;77.37;;;42.33;;
55134;SDS011;41031;44.750;11.308;2023-02-23T04:57:47;82.77;;;42.17;;
55134;SDS011;41031;44.750;11.308;2023-02-23T05:00:15;80.03;;;42.60;;
55134;SDS011;41031;44.750;11.308;2023-02-23T05:02:43;69.33;;;35.93;;
55134;SDS011;41031;44.750;11.308;2023-02-23T05:05:14;65.53;;;37.20;;
55134;SDS011;41031;44.750;11.308;2023-02-23T05:07:41;63.80;;;36.47;;
55134;SDS011;41031;44.750;11.308;2023-02-23T05:10:09;65.77;;;37.17;;
55134;SDS011;41031;44.750;11.308;2023-02-23T05:12:38;61.93;;;35.87;;
55134;SDS011;41031;44.750;11.308;2023-02-23T05:15:06;63.33;;;37.33;;
55134;SDS011;41031;44.750;11.308;2023-02-23T05:17:33;60.10;;;36.47;;
55134;SDS011;41031;44.750;11.308;2023-02-23T05:20:03;61.67;;;36.37;;
55134;SDS011;41031;44.750;11.308;2023-02-23T05:22:31;69.00;;;39.13;;
55134;SDS011;41031;44.750;11.308;2023-02-23T05:24:59;71.17;;;39.30;;
55134;SDS011;41031;44.750;11.308;2023-02-23T05:27:27;62.90;;;38.23;;
55134;SDS011;41031;44.750;11.308;2023-02-23T05:29:55;69.07;;;38.63;;
55134;SDS011;41031;44.750;11.308;2023-02-23T05:32:22;73.63;;;39.40;;
55134;SDS011;41031;44.750;11.308;2023-02-23T05:34:49;64.87;;;36.10;;
55134;SDS011;41031;44.750;11.308;2023-02-23T05:37:16;69.80;;;38.63;;
55134;SDS011;41031;44.750;11.308;2023-02-23T05:39:45;69.20;;;37.93;;
55134;SDS011;41031;44.750;11.308;2023-02-23T05:42:12;64.53;;;36.13;;
55134;SDS011;41031;44.750;11.308;2023-02-23T05:44:39;67.00;;;37.70;;
55134;SDS011;41031;44.750;11.308;2023-02-23T05:47:06;63.87;;;36.87;;
55134;SDS011;41031;44.750;11.308;2023-02-23T05:49:34;64.40;;;36.70;;
55134;SDS011;41031;44.750;11.308;2023-02-23T05:52:02;62.90;;;36.20;;
55134;SDS011;41031;44.750;11.308;2023-02-23T05:54:29;68.90;;;37.43;;
55134;SDS011;41031;44.750;11.308;2023-02-23T05:56:57;61.27;;;36.20;;
55134;SDS011;41031;44.750;11.308;2023-02-23T05:59:27;70.57;;;37.33;;
55134;SDS011;41031;44.750;11.308;2023-02-23T06:01:55;73.37;;;39.10;;
55134;SDS011;41031;44.750;11.308;2023-02-23T06:04:22;65.60;;;36.27;;
55134;SDS011;41031;44.750;11.308;2023-02-23T06:06:51;60.57;;;38.10;;
55134;SDS011;41031;44.750;11.308;2023-02-23T06:09:18;66.67;;;38.07;;
55134;SDS011;41031;44.750;11.308;2023-02-23T06:11:45;70.80;;;41.33;;
55134;SDS011;41031;44.750;11.308;2023-02-23T06:14:14;75.47;;;40.73;;
55134;SDS011;41031;44.750;11.308;2023-02-23T06:16:41;77.20;;;42.73;;
55134;SDS011;41031;44.750;11.308;2023-02-23T06:19:11;73.13;;;40.77;;
55134;SDS011;41031;44.750;11.308;2023-02-23T06:21:39;77.13;;;38.93;;
55134;SDS011;41031;44.750;11.308;2023-02-23T06:24:07;72.50;;;41.23;;
55134;SDS011;41031;44.750;11.308;2023-02-23T06:26:35;67.53;;;38.80;;
55134;SDS011;41031;44.750;11.308;2023-02-23T06:29:12;74.37;;;39.27;;
55134;SDS011;41031;44.750;11.308;2023-02-23T06:31:41;72.67;;;40.87;;
55134;SDS011;41031;44.750;11.308;2023-02-23T06:34:12;74.07;;;39.57;;
55134;SDS011;41031;44.750;11.308;2023-02-23T06:36:39;67.73;;;38.10;;
55134;SDS011;41031;44.750;11.308;2023-02-23T06:39:10;76.77;;;40.27;;
55134;SDS011;41031;44.750;11.308;2023-02-23T06:41:38;68.97;;;37.67;;
55134;SDS011;41031;44.750;11.308;2023-02-23T06:44:05;66.17;;;39.43;;
55134;SDS011;41031;44.750;11.308;2023-02-23T06:46:32;62.10;;;38.60;;
55134;SDS011;41031;44.750;11.308;2023-02-23T06:49:02;71.13;;;40.97;;
55134;SDS011;41031;44.750;11.308;2023-02-23T06:51:30;67.13;;;39.70;;
55134;SDS011;41031;44.750;11.308;2023-02-23T06:53:57;72.90;;;40.47;;
55134;SDS011;41031;44.750;11.308;2023-02-23T06:56:25;66.67;;;40.33;;
55134;SDS011;41031;44.750;11.308;2023-02-23T06:58:53;69.53;;;43.07;;
55134;SDS011;41031;44.750;11.308;2023-02-23T07:01:20;69.90;;;39.73;;
55134;SDS011;41031;44.750;11.308;2023-02-23T07:03:47;72.50;;;40.07;;
55134;SDS011;41031;44.750;11.308;2023-02-23T07:06:16;72.87;;;42.40;;
55134;SDS011;41031;44.750;11.308;2023-02-23T07:08:46;78.07;;;42.00;;
55134;SDS011;41031;44.750;11.308;2023-02-23T07:11:15;70.90;;;40.60;;
55134;SDS011;41031;44.750;11.308;2023-02-23T07:13:45;80.23;;;43.57;;
55134;SDS011;41031;44.750;11.308;2023-02-23T07:16:13;81.73;;;40.73;;
55134;SDS011;41031;44.750;11.308;2023-02-23T07:18:42;81.37;;;43.23;;
55134;SDS011;41031;44.750;11.308;2023-02-23T07:21:10;78.93;;;44.37;;
55134;SDS011;41031;44.750;11.308;2023-02-23T07:23:38;69.43;;;40.93;;
55134;SDS011;41031;44.750;11.308;2023-02-23T07:26:05;83.90;;;42.47;;
55134;SDS011;41031;44.750;11.308;2023-02-23T07:28:33;77.23;;;42.23;;
55134;SDS011;41031;44.750;11.308;2023-02-23T07:31:06;101.77;;;50.43;;
55134;SDS011;41031;44.750;11.308;2023-02-23T07:33:34;97.20;;;50.73;;
55134;SDS011;41031;44.750;11.308;2023-02-23T07:36:08;91.50;;;48.30;;
55134;SDS011;41031;44.750;11.308;2023-02-23T07:38:38;89.03;;;48.87;;
55134;SDS011;41031;44.750;11.308;2023-02-23T07:41:07;90.63;;;48.27;;
55134;SDS011;41031;44.750;11.308;2023-02-23T07:43:35;84.00;;;47.30;;
55134;SDS011;41031;44.750;11.308;2023-02-23T07:46:02;92.83;;;47.70;;
55134;SDS011;41031;44.750;11.308;2023-02-23T07:48:31;80.57;;;46.27;;
55134;SDS011;41031;44.750;11.308;2023-02-23T07:50:59;79.90;;;47.00;;
55134;SDS011;41031;44.750;11.308;2023-02-23T07:53:28;84.50;;;47.33;;
55134;SDS011;41031;44.750;11.308;2023-02-23T07:55:56;86.27;;;46.77;;
55134;SDS011;41031;44.750;11.308;2023-02-23T07:58:23;96.10;;;49.70;;
55134;SDS011;41031;44.750;11.308;2023-02-23T08:00:50;96.07;;;50.37;;
55134;SDS011;41031;44.750;11.308;2023-02-23T08:03:18;92.37;;;52.67;;
55134;SDS011;41031;44.750;11.308;2023-02-23T08:05:45;96.10;;;53.50;;
55134;SDS011;41031;44.750;11.308;2023-02-23T08:08:12;97.97;;;49.30;;
55134;SDS011;41031;44.750;11.308;2023-02-23T08:10:39;83.27;;;49.20;;
55134;SDS011;41031;44.750;11.308;2023-02-23T08:13:07;82.87;;;48.73;;
55134;SDS011;41031;44.750;11.308;2023-02-23T08:15:34;77.40;;;48.20;;
55134;SDS011;41031;44.750;11.308;2023-02-23T08:18:01;85.20;;;48.60;;
55134;SDS011;41031;44.750;11.308;2023-02-23T08:20:28;83.60;;;47.93;;
55134;SDS011;41031;44.750;11.308;2023-02-23T08:22:56;84.47;;;48.03;;
55134;SDS011;41031;44.750;11.308;2023-02-23T08:25:24;90.90;;;52.37;;
55134;SDS011;41031;44.750;11.308;2023-02-23T08:27:54;85.23;;;49.70;;
55134;SDS011;41031;44.750;11.308;2023-02-23T08:30:21;93.13;;;51.03;;
55134;SDS011;41031;44.750;11.308;2023-02-23T08:32:50;91.33;;;51.17;;
55134;SDS011;41031;44.750;11.308;2023-02-23T08:35:17;86.97;;;52.00;;
55134;SDS011;41031;44.750;11.308;2023-02-23T08:37:45;88.67;;;50.03;;
55134;SDS011;41031;44.750;11.308;2023-02-23T08:40:13;86.73;;;50.80;;
55134;SDS011;41031;44.750;11.308;2023-02-23T08:42:45;83.63;;;49.07;;
55134;SDS011;41031;44.750;11.308;2023-02-23T08:45:17;93.13;;;51.03;;
55134;SDS011;41031;44.750;11.308;2023-02-23T08:47:46;85.97;;;50.60;;
55134;SDS011;41031;44.750;11.308;2023-02-23T08:50:20;87.70;;;50.70;;
55134;SDS011;41031;44.750;11.308;2023-02-23T08:52:47;89.27;;;49.33;;
55134;SDS011;41031;44.750;11.308;2023-02-23T08:55:17;89.23;;;50.07;;
55134;SDS011;41031;44.750;11.308;2023-02-23T08:57:46;91.47;;;52.63;;
55134;SDS011;41031;44.750;11.308;2023-02-23T09:00:13;94.30;;;51.47;;
55134;SDS011;41031;44.750;11.308;2023-02-23T09:02:45;89.77;;;53.20;;
55134;SDS011;41031;44.750;11.308;2023-02-23T09:05:15;95.80;;;54.80;;
55134;SDS011;41031;44.750;11.308;2023-02-23T09:07:43;90.20;;;51.57;;
55134;SDS011;41031;44.750;11.308;2023-02-23T09:10:12;93.50;;;53.30;;
55134;SDS011;41031;44.750;11.308;2023-02-23T09:12:40;97.07;;;53.70;;
55134;SDS011;41031;44.750;11.308;2023-02-23T09:15:08;92.33;;;56.20;;
55134;SDS011;41031;44.750;11.308;2023-02-23T09:17:35;84.17;;;51.50;;
55134;SDS011;41031;44.750;11.308;2023-02-23T09:20:04;89.77;;;53.77;;
55134;SDS011;41031;44.750;11.308;2023-02-23T09:22:32;93.80;;;56.40;;
55134;SDS011;41031;44.750;11.308;2023-02-23T09:25:02;97.57;;;54.67;;
55134;SDS011;41031;44.750;11.308;2023-02-23T09:27:30;88.87;;;53.03;;
55134;SDS011;41031;44.750;11.308;2023-02-23T09:29:57;89.83;;;55.10;;
55134;SDS011;41031;44.750;11.308;2023-02-23T09:32:24;101.50;;;56.33;;
55134;SDS011;41031;44.750;11.308;2023-02-23T09:34:52;95.53;;;57.23;;
55134;SDS011;41031;44.750;11.308;2023-02-23T09:37:19;95.00;;;55.00;;
55134;SDS011;41031;44.750;11.308;2023-02-23T09:39:47;100.43;;;60.27;;
55134;SDS011;41031;44.750;11.308;2023-02-23T09:42:16;96.20;;;57.73;;
55134;SDS011;41031;44.750;11.308;2023-02-23T09:45:25;103.67;;;59.27;;
55134;SDS011;41031;44.750;11.308;2023-02-23T09:50:50;97.77;;;57.03;;
55134;SDS011;41031;44.750;11.308;2023-02-23T09:56:17;96.30;;;60.67;;
55134;SDS011;41031;44.750;11.308;2023-02-23T09:59:04;108.57;;;60.47;;
55134;SDS011;41031;44.750;11.308;2023-02-23T10:06:44;114.50;;;64.00;;
55134;SDS011;41031;44.750;11.308;2023-02-23T10:15:26;113.80;;;63.73;;
55134;SDS011;41031;44.750;11.308;2023-02-23T10:20:52;108.87;;;60.90;;
55134;SDS011;41031;44.750;11.308;2023-02-23T10:23:38;114.77;;;64.20;;
55134;SDS011;41031;44.750;11.308;2023-02-23T10:26:14;112.03;;;63.87;;
55134;SDS011;41031;44.750;11.308;2023-02-23T10:28:44;111.20;;;62.67;;
55134;SDS011;41031;44.750;11.308;2023-02-23T10:31:24;105.83;;;60.83;;
55134;SDS011;41031;44.750;11.308;2023-02-23T10:33:59;108.40;;;62.27;;
55134;SDS011;41031;44.750;11.308;2023-02-23T10:36:36;112.33;;;61.70;;
55134;SDS011;41031;44.750;11.308;2023-02-23T10:39:07;112.07;;;63.13;;
55134;SDS011;41031;44.750;11.308;2023-02-23T10:41:35;110.27;;;62.37;;
55134;SDS011;41031;44.750;11.308;2023-02-23T10:44:03;114.20;;;63.33;;
55134;SDS011;41031;44.750;11.308;2023-02-23T10:46:42;111.27;;;64.23;;
55134;SDS011;41031;44.750;11.308;2023-02-23T10:49:21;114.37;;;63.30;;
55134;SDS011;41031;44.750;11.308;2023-02-23T10:51:55;106.67;;;63.57;;
55134;SDS011;41031;44.750;11.308;2023-02-23T10:57:11;116.70;;;62.60;;
55134;SDS011;41031;44.750;11.308;2023-02-23T11:02:43;116.83;;;65.40;;
55134;SDS011;41031;44.750;11.308;2023-02-23T11:10:37;112.63;;;67.57;;
55134;SDS011;41031;44.750;11.308;2023-02-23T11:13:19;118.73;;;66.87;;
55134;SDS011;41031;44.750;11.308;2023-02-23T11:15:57;118.37;;;65.37;;
55134;SDS011;41031;44.750;11.308;2023-02-23T11:18:27;113.60;;;65.70;;
55134;SDS011;41031;44.750;11.308;2023-02-23T11:20:55;108.03;;;65.60;;
55134;SDS011;41031;44.750;11.308;2023-02-23T11:23:24;114.77;;;65.17;;
55134;SDS011;41031;44.750;11.308;2023-02-23T11:25:56;123.87;;;66.70;;
55134;SDS011;41031;44.750;11.308;2023-02-23T11:28:30;118.53;;;66.83;;
55134;SDS011;41031;44.750;11.308;2023-02-23T11:31:02;109.00;;;61.37;;
55134;SDS011;41031;44.750;11.308;2023-02-23T11:33:39;112.43;;;62.80;;
55134;SDS011;41031;44.750;11.308;2023-02-23T11:39:06;100.27;;;61.10;;
55134;SDS011;41031;44.750;11.308;2023-02-23T11:41:39;108.17;;;60.93;;
55134;SDS011;41031;44.750;11.308;2023-02-23T11:44:07;109.67;;;61.03;;
55134;SDS011;41031;44.750;11.308;2023-02-23T11:46:49;110.27;;;60.97;;
55134;SDS011;41031;44.750;11.308;2023-02-23T11:49:20;110.17;;;58.50;;
55134;SDS011;41031;44.750;11.308;2023-02-23T11:51:54;94.23;;;55.20;;
55134;SDS011;41031;44.750;11.308;2023-02-23T11:54:26;102.37;;;56.83;;
55134;SDS011;41031;44.750;11.308;2023-02-23T11:56:56;103.73;;;58.20;;
55134;SDS011;41031;44.750;11.308;2023-02-23T12:02:03;86.90;;;53.67;;
55134;SDS011;41031;44.750;11.308;2023-02-23T12:04:49;87.70;;;49.40;;
55134;SDS011;41031;44.750;11.308;2023-02-23T12:16:16;73.47;;;43.83;;
55134;SDS011;41031;44.750;11.308;2023-02-23T12:21:36;81.50;;;47.83;;
55134;SDS011;41031;44.750;11.308;2023-02-23T12:27:00;83.70;;;46.23;;
55134;SDS011;41031;44.750;11.308;2023-02-23T12:29:50;85.17;;;48.70;;
55134;SDS011;41031;44.750;11.308;2023-02-23T12:32:57;83.67;;;49.20;;
55134;SDS011;41031;44.750;11.308;2023-02-23T12:35:48;80.40;;;46.87;;
55134;SDS011;41031;44.750;11.308;2023-02-23T12:41:24;70.17;;;43.63;;
55134;SDS011;41031;44.750;11.308;2023-02-23T12:47:46;72.07;;;43.07;;
55134;SDS011;41031;44.750;11.308;2023-02-23T12:50:38;72.57;;;41.20;;
55134;SDS011;41031;44.750;11.308;2023-02-23T12:56:00;67.20;;;39.90;;
55134;SDS011;41031;44.750;11.308;2023-02-23T12:58:41;64.47;;;40.33;;
55134;SDS011;41031;44.750;11.308;2023-02-23T13:01:34;69.83;;;43.57;;
55134;SDS011;41031;44.750;11.308;2023-02-23T13:07:19;71.80;;;41.20;;
55134;SDS011;41031;44.750;11.308;2023-02-23T13:13:11;63.07;;;39.63;;
55134;SDS011;41031;44.750;11.308;2023-02-23T13:21:08;64.13;;;38.53;;
55134;SDS011;41031;44.750;11.308;2023-02-23T13:29:38;63.40;;;39.63;;
55134;SDS011;41031;44.750;11.308;2023-02-23T13:32:18;71.90;;;42.77;;
55134;SDS011;41031;44.750;11.308;2023-02-23T13:37:33;68.27;;;40.10;;
55134;SDS011;41031;44.750;11.308;2023-02-23T13:40:39;61.30;;;38.43;;
55134;SDS011;41031;44.750;11.308;2023-02-23T13:43:10;55.23;;;35.20;;
55134;SDS011;41031;44.750;11.308;2023-02-23T13:56:41;53.90;;;35.77;;
55134;SDS011;41031;44.750;11.308;2023-02-23T13:59:16;64.77;;;40.10;;
55134;SDS011;41031;44.750;11.308;2023-02-23T14:02:01;63.43;;;37.43;;
55134;SDS011;41031;44.750;11.308;2023-02-23T14:05:02;64.00;;;37.93;;
55134;SDS011;41031;44.750;11.308;2023-02-23T14:07:44;55.70;;;35.57;;
55134;SDS011;41031;44.750;11.308;2023-02-23T14:10:36;64.20;;;38.60;;
55134;SDS011;41031;44.750;11.308;2023-02-23T14:13:15;61.17;;;38.13;;
55134;SDS011;41031;44.750;11.308;2023-02-23T14:18:52;65.60;;;38.67;;
55134;SDS011;41031;44.750;11.308;2023-02-23T14:24:12;58.47;;;39.03;;
55134;SDS011;41031;44.750;11.308;2023-02-23T14:29:40;66.73;;;40.27;;
55134;SDS011;41031;44.750;11.308;2023-02-23T14:34:44;69.70;;;39.97;;
55134;SDS011;41031;44.750;11.308;2023-02-23T14:40:16;72.57;;;43.23;;
55134;SDS011;41031;44.750;11.308;2023-02-23T14:42:52;65.63;;;42.83;;
55134;SDS011;41031;44.750;11.308;2023-02-23T14:45:24;69.37;;;43.17;;
55134;SDS011;41031;44.750;11.308;2023-02-23T14:47:55;75.03;;;43.50;;
55134;SDS011;41031;44.750;11.308;2023-02-23T14:50:36;71.17;;;44.20;;
55134;SDS011;41031;44.750;11.308;2023-02-23T14:53:05;74.83;;;44.60;;
55134;SDS011;41031;44.750;11.308;2023-02-23T14:55:40;74.80;;;45.67;;
55134;SDS011;41031;44.750;11.308;2023-02-23T14:58:22;71.90;;;42.50;;
55134;SDS011;41031;44.750;11.308;2023-02-23T15:00:55;68.77;;;43.53;;
55134;SDS011;41031;44.750;11.308;2023-02-23T15:03:23;71.03;;;44.70;;
55134;SDS011;41031;44.750;11.308;2023-02-23T15:05:55;71.33;;;44.63;;
55134;SDS011;41031;44.750;11.308;2023-02-23T15:08:26;74.17;;;44.80;;
55134;SDS011;41031;44.750;11.308;2023-02-23T15:11:04;74.13;;;43.67;;
55134;SDS011;41031;44.750;11.308;2023-02-23T15:13:47;74.43;;;43.50;;
55134;SDS011;41031;44.750;11.308;2023-02-23T15:16:17;72.17;;;45.30;;
55134;SDS011;41031;44.750;11.308;2023-02-23T15:18:57;73.57;;;44.60;;
55134;SDS011;41031;44.750;11.308;2023-02-23T15:21:29;73.37;;;45.70;;
55134;SDS011;41031;44.750;11.308;2023-02-23T15:23:58;73.53;;;44.83;;
55134;SDS011;41031;44.750;11.308;2023-02-23T15:26:37;72.10;;;45.13;;
55134;SDS011;41031;44.750;11.308;2023-02-23T15:31:39;72.50;;;44.10;;
55134;SDS011;41031;44.750;11.308;2023-02-23T15:34:25;78.90;;;47.70;;
55134;SDS011;41031;44.750;11.308;2023-02-23T15:37:06;77.07;;;47.87;;
55134;SDS011;41031;44.750;11.308;2023-02-23T15:39:46;75.80;;;47.20;;
55134;SDS011;41031;44.750;11.308;2023-02-23T15:42:44;82.33;;;49.33;;
55134;SDS011;41031;44.750;11.308;2023-02-23T15:48:07;75.50;;;46.00;;
55134;SDS011;41031;44.750;11.308;2023-02-23T15:50:44;77.07;;;48.20;;
55134;SDS011;41031;44.750;11.308;2023-02-23T15:55:55;85.00;;;49.57;;
55134;SDS011;41031;44.750;11.308;2023-02-23T15:58:31;74.90;;;48.50;;
55134;SDS011;41031;44.750;11.308;2023-02-23T16:01:19;78.90;;;48.47;;
55134;SDS011;41031;44.750;11.308;2023-02-23T16:06:34;81.07;;;48.87;;
55134;SDS011;41031;44.750;11.308;2023-02-23T16:11:51;75.57;;;49.03;;
55134;SDS011;41031;44.750;11.308;2023-02-23T16:14:34;84.33;;;47.97;;
55134;SDS011;41031;44.750;11.308;2023-02-23T16:17:20;83.00;;;50.63;;
55134;SDS011;41031;44.750;11.308;2023-02-23T16:22:38;85.43;;;50.97;;
55134;SDS011;41031;44.750;11.308;2023-02-23T16:25:15;88.23;;;51.33;;
55134;SDS011;41031;44.750;11.308;2023-02-23T16:27:44;84.00;;;50.67;;
55134;SDS011;41031;44.750;11.308;2023-02-23T16:30:21;84.07;;;52.63;;
55134;SDS011;41031;44.750;11.308;2023-02-23T16:35:35;91.77;;;52.03;;
55134;SDS011;41031;44.750;11.308;2023-02-23T16:38:22;104.53;;;56.43;;
55134;SDS011;41031;44.750;11.308;2023-02-23T16:40:52;97.47;;;53.17;;
55134;SDS011;41031;44.750;11.308;2023-02-23T16:43:20;110.83;;;54.20;;
55134;SDS011;41031;44.750;11.308;2023-02-23T16:45:47;85.13;;;52.63;;
55134;SDS011;41031;44.750;11.308;2023-02-23T16:48:15;87.77;;;54.27;;
55134;SDS011;41031;44.750;11.308;2023-02-23T16:50:43;87.53;;;52.47;;
55134;SDS011;41031;44.750;11.308;2023-02-23T16:53:11;106.10;;;51.83;;
55134;SDS011;41031;44.750;11.308;2023-02-23T16:55:42;95.47;;;54.23;;
55134;SDS011;41031;44.750;11.308;2023-02-23T16:58:22;84.40;;;52.13;;
55134;SDS011;41031;44.750;11.308;2023-02-23T17:00:52;98.33;;;51.40;;
55134;SDS011;41031;44.750;11.308;2023-02-23T17:03:21;112.37;;;52.20;;
55134;SDS011;41031;44.750;11.308;2023-02-23T17:05:52;93.40;;;53.43;;
55134;SDS011;41031;44.750;11.308;2023-02-23T17:08:20;92.37;;;52.03;;
55134;SDS011;41031;44.750;11.308;2023-02-23T17:10:48;93.40;;;52.40;;
55134;SDS011;41031;44.750;11.308;2023-02-23T17:15:46;88.67;;;52.07;;
55134;SDS011;41031;44.750;11.308;2023-02-23T17:18:17;80.53;;;50.03;;
55134;SDS011;41031;44.750;11.308;2023-02-23T17:20:46;90.13;;;49.27;;
55134;SDS011;41031;44.750;11.308;2023-02-23T17:23:13;87.27;;;52.63;;
55134;SDS011;41031;44.750;11.308;2023-02-23T17:25:40;81.97;;;49.90;;